createdAt,value
2022-08-02T00:00:39.433Z,9.85
2022-08-02T00:03:06.584Z,12.07
2022-08-02T00:05:33.733Z,12.23
2022-08-02T00:08:01.125Z,8.80
2022-08-02T00:10:28.506Z,8.10
2022-08-02T00:12:58.427Z,7.43
2022-08-02T00:15:26.366Z,10.98
2022-08-02T00:17:53.668Z,10.07
2022-08-02T00:20:21.015Z,8.75
2022-08-02T00:22:48.242Z,6.45
2022-08-02T00:25:15.456Z,9.40
2022-08-02T00:27:42.708Z,8.30
2022-08-02T00:30:10.268Z,6.97
2022-08-02T00:32:37.423Z,4.60
2022-08-02T00:35:04.982Z,9.13
2022-08-02T00:37:32.198Z,5.68
2022-08-02T00:39:59.477Z,7.78
2022-08-02T00:42:26.854Z,7.82
2022-08-02T00:44:54.043Z,7.65
2022-08-02T00:47:21.196Z,7.53
2022-08-02T00:49:48.424Z,7.57
2022-08-02T00:52:15.623Z,5.40
2022-08-02T00:54:42.991Z,10.93
2022-08-02T00:57:10.256Z,3.50
2022-08-02T00:59:39.354Z,5.05
2022-08-02T01:02:10.189Z,7.03
2022-08-02T01:04:37.780Z,8.20
2022-08-02T01:07:12.937Z,5.38
2022-08-02T01:09:42.773Z,5.85
2022-08-02T01:12:11.206Z,8.55
2022-08-02T01:14:41.868Z,6.50
2022-08-02T01:17:29.102Z,8.13
2022-08-02T01:20:33.612Z,7.97
2022-08-02T01:23:19.453Z,5.97
2022-08-02T01:26:04.895Z,4.85
2022-08-02T01:28:40.888Z,6.40
2022-08-02T01:31:16.629Z,7.53
2022-08-02T01:33:49.946Z,5.05
2022-08-02T01:36:20.841Z,5.57
2022-08-02T01:38:50.456Z,4.97
2022-08-02T01:41:23.986Z,5.93
2022-08-02T01:43:55.709Z,6.75
2022-08-02T01:46:24.705Z,4.70
2022-08-02T01:48:54.108Z,11.98
2022-08-02T01:51:44.928Z,6.57
2022-08-02T01:54:15.753Z,4.90
2022-08-02T01:56:44.755Z,6.13
2022-08-02T01:59:21.164Z,9.63
2022-08-02T02:01:50.972Z,9.38
2022-08-02T02:04:20.410Z,6.63
2022-08-02T02:06:49.359Z,8.80
2022-08-02T02:09:18.048Z,7.88
2022-08-02T02:12:11.682Z,10.10
2022-08-02T02:14:36.514Z,8.18
2022-08-02T02:17:04.910Z,6.88
2022-08-02T02:19:38.584Z,6.78
2022-08-02T02:22:06.147Z,6.55
2022-08-02T02:24:35.208Z,7.15
2022-08-02T02:27:08.052Z,4.63
2022-08-02T02:29:39.011Z,7.93
2022-08-02T02:32:06.669Z,8.70
2022-08-02T02:34:39.131Z,5.55
2022-08-02T02:37:12.569Z,11.10
2022-08-02T02:39:42.380Z,8.63
2022-08-02T02:42:14.331Z,7.30
2022-08-02T02:44:43.085Z,7.88
2022-08-02T02:47:11.826Z,6.60
2022-08-02T02:49:40.224Z,8.00
2022-08-02T02:52:09.562Z,6.95
2022-08-02T02:54:38.474Z,4.28
2022-08-02T02:57:07.034Z,7.00
2022-08-02T02:59:42.520Z,5.97
2022-08-02T03:02:17.337Z,6.53
2022-08-02T03:04:57.571Z,7.43
2022-08-02T03:07:26.945Z,5.50
2022-08-02T03:09:55.215Z,5.28
2022-08-02T03:12:30.219Z,5.28
2022-08-02T03:15:05.065Z,6.80
2022-08-02T03:17:46.363Z,5.93
2022-08-02T03:20:16.989Z,8.05
2022-08-02T03:22:45.500Z,5.30
2022-08-02T03:25:14.067Z,8.82
2022-08-02T03:27:41.618Z,7.50
2022-08-02T03:30:11.825Z,7.97
2022-08-02T03:32:41.826Z,6.93
2022-08-02T03:35:12.816Z,8.85
2022-08-02T03:37:41.261Z,8.98
2022-08-02T03:40:11.198Z,9.63
2022-08-02T03:42:40.465Z,12.55
2022-08-02T03:45:10.728Z,7.75
2022-08-02T03:47:39.770Z,10.80
2022-08-02T03:50:13.072Z,9.88
2022-08-02T03:52:44.763Z,8.13
2022-08-02T03:55:13.531Z,6.30
2022-08-02T03:57:42.932Z,13.65
2022-08-02T04:00:14.432Z,9.73
2022-08-02T04:02:41.704Z,9.73
2022-08-02T04:05:09.343Z,8.45
2022-08-02T04:08:03.561Z,7.65
2022-08-02T04:10:23.776Z,6.75
2022-08-02T04:12:51.108Z,5.55
2022-08-02T04:15:19.018Z,6.30
2022-08-02T04:17:59.093Z,7.38
2022-08-02T04:20:31.819Z,6.60
2022-08-02T04:23:04.736Z,4.18
2022-08-02T04:25:35.453Z,8.05
2022-08-02T04:28:17.614Z,9.40
2022-08-02T04:30:48.413Z,9.05
2022-08-02T04:33:16.965Z,6.22
2022-08-02T04:35:45.289Z,8.13
2022-08-02T04:38:16.359Z,8.98
2022-08-02T04:40:55.660Z,6.63
2022-08-02T04:43:23.737Z,8.10
2022-08-02T04:45:53.329Z,13.90
2022-08-02T04:48:21.589Z,4.78
2022-08-02T04:50:48.861Z,6.45
2022-08-02T04:53:16.444Z,7.72
2022-08-02T04:55:43.663Z,5.35
2022-08-02T04:58:38.330Z,5.75
2022-08-02T05:00:58.250Z,6.95
2022-08-02T05:03:25.527Z,7.78
2022-08-02T05:05:52.820Z,6.82
2022-08-02T05:08:20.129Z,5.53
2022-08-02T05:10:47.374Z,5.55
2022-08-02T05:13:14.611Z,7.30
2022-08-02T05:15:41.885Z,9.27
2022-08-02T05:18:09.292Z,9.05
2022-08-02T05:20:36.728Z,6.90
2022-08-02T05:23:03.880Z,9.73
2022-08-02T05:25:31.127Z,7.90
2022-08-02T05:27:58.345Z,8.13
2022-08-02T05:30:25.718Z,10.48
2022-08-02T05:32:52.918Z,8.70
2022-08-02T05:35:22.744Z,8.27
2022-08-02T05:37:51.196Z,13.40
2022-08-02T05:40:24.698Z,13.82
2022-08-02T05:42:54.401Z,8.30
2022-08-02T05:45:22.707Z,10.50
2022-08-02T05:47:49.990Z,11.80
2022-08-02T05:50:17.944Z,11.57
2022-08-02T05:53:14.558Z,8.88
2022-08-02T05:55:53.582Z,7.65
2022-08-02T05:58:49.015Z,13.25
2022-08-02T06:01:25.145Z,11.85
2022-08-02T06:03:56.759Z,13.23
2022-08-02T06:06:26.349Z,8.68
2022-08-02T06:09:01.061Z,9.68
2022-08-02T06:11:35.942Z,17.35
2022-08-02T06:14:05.113Z,30.95
2022-08-02T06:16:33.194Z,13.07
2022-08-02T06:19:09.841Z,8.02
2022-08-02T06:22:42.133Z,9.43
2022-08-02T06:24:27.010Z,9.65
2022-08-02T06:26:57.497Z,5.60
2022-08-02T06:29:25.591Z,8.95
2022-08-02T06:31:54.020Z,7.97
2022-08-02T06:34:21.535Z,7.60
2022-08-02T06:37:05.404Z,6.78
2022-08-02T06:39:43.152Z,9.13
2022-08-02T06:42:14.243Z,4.78
2022-08-02T06:44:50.075Z,5.88
2022-08-02T06:47:20.304Z,6.10
2022-08-02T06:49:52.326Z,8.23
2022-08-02T06:52:28.148Z,7.65
2022-08-02T06:54:57.730Z,9.27
2022-08-02T06:57:26.329Z,6.90
2022-08-02T06:59:53.837Z,4.55
2022-08-02T07:02:21.263Z,4.75
2022-08-02T07:04:48.629Z,7.40
2022-08-02T07:07:15.910Z,7.75
2022-08-02T07:09:56.998Z,6.57
2022-08-02T07:12:33.825Z,2.95
2022-08-02T07:15:04.411Z,3.28
2022-08-02T07:17:34.117Z,5.30
2022-08-02T07:20:02.622Z,5.00
2022-08-02T07:22:31.395Z,6.50
2022-08-02T07:25:00.693Z,7.53
2022-08-02T07:27:28.898Z,6.72
2022-08-02T07:29:56.876Z,7.68
2022-08-02T07:32:28.933Z,5.55
2022-08-02T07:34:57.336Z,4.25
2022-08-02T07:37:51.182Z,9.27
2022-08-02T07:40:19.590Z,5.03
2022-08-02T07:42:56.425Z,6.70
2022-08-02T07:45:28.196Z,4.38
2022-08-02T07:47:57.185Z,4.07
2022-08-02T07:50:24.866Z,2.92
2022-08-02T07:52:57.210Z,4.00
2022-08-02T07:55:40.068Z,2.53
2022-08-02T07:58:12.438Z,5.65
2022-08-02T08:00:43.345Z,2.30
2022-08-02T08:03:11.161Z,4.32
2022-08-02T08:05:38.380Z,3.22
2022-08-02T08:08:06.245Z,3.33
2022-08-02T08:10:33.648Z,2.50
2022-08-02T08:13:00.947Z,2.55
2022-08-02T08:15:28.309Z,7.25
2022-08-02T08:17:55.525Z,7.18
2022-08-02T08:20:23.308Z,15.75
2022-08-02T08:22:50.576Z,9.75
2022-08-02T08:25:17.871Z,6.88
2022-08-02T08:27:49.452Z,5.15
2022-08-02T08:30:16.984Z,5.13
2022-08-02T08:32:45.724Z,2.33
2022-08-02T08:35:14.023Z,2.47
2022-08-02T08:37:41.232Z,5.43
2022-08-02T08:40:10.688Z,2.25
2022-08-02T08:42:40.584Z,4.18
2022-08-02T08:45:09.290Z,2.33
2022-08-02T08:47:39.619Z,3.25
2022-08-02T08:50:21.535Z,4.50
2022-08-02T08:53:01.207Z,4.82
2022-08-02T08:55:30.297Z,4.22
2022-08-02T08:58:02.526Z,2.83
2022-08-02T09:03:02.578Z,4.22
2022-08-02T09:05:29.851Z,2.70
2022-08-02T09:07:57.111Z,2.85
2022-08-02T09:10:33.747Z,2.30
2022-08-02T09:13:38.162Z,3.58
2022-08-02T09:16:13.071Z,4.97
2022-08-02T09:18:47.730Z,5.25
2022-08-02T09:21:19.070Z,2.00
2022-08-02T09:23:49.052Z,2.93
2022-08-02T09:26:19.004Z,3.10
2022-08-02T09:28:52.434Z,2.47
2022-08-02T09:31:21.895Z,2.70
2022-08-02T09:33:56.937Z,3.20
2022-08-02T09:36:25.296Z,2.42
2022-08-02T09:39:03.989Z,2.63
2022-08-02T09:41:33.253Z,2.83
2022-08-02T09:44:05.261Z,4.30
2022-08-02T09:46:39.279Z,4.20
2022-08-02T09:49:13.020Z,2.25
2022-08-02T09:51:46.928Z,2.90
2022-08-02T09:54:18.319Z,3.05
2022-08-02T09:56:57.761Z,2.58
2022-08-02T09:59:26.199Z,3.40
2022-08-02T10:02:01.605Z,2.40
2022-08-02T10:04:52.479Z,5.22
2022-08-02T10:07:21.654Z,2.60
2022-08-02T10:09:51.563Z,2.55
2022-08-02T10:12:20.931Z,3.42
2022-08-02T10:14:51.852Z,7.75
2022-08-02T10:21:10.109Z,2.03
2022-08-02T10:23:40.386Z,4.88
2022-08-02T10:26:09.144Z,2.40
2022-08-02T10:28:37.753Z,2.45
2022-08-02T10:31:07.616Z,5.50
2022-08-02T10:33:38.467Z,6.45
2022-08-02T10:36:08.486Z,3.47
2022-08-02T10:38:36.705Z,4.68
2022-08-02T10:41:04.360Z,2.40
2022-08-02T10:43:31.428Z,2.30
2022-08-02T10:46:36.827Z,2.10
2022-08-02T10:52:09.033Z,3.78
2022-08-02T10:54:40.814Z,3.75
2022-08-02T10:57:20.419Z,3.15
2022-08-02T10:59:49.594Z,4.45
2022-08-02T11:02:34.145Z,2.55
2022-08-02T11:05:07.766Z,2.00
2022-08-02T11:07:40.440Z,2.97
2022-08-02T11:10:26.400Z,3.95
2022-08-02T11:13:08.783Z,3.85
2022-08-02T11:18:15.659Z,3.13
2022-08-02T11:20:43.640Z,3.30
2022-08-02T11:23:44.525Z,5.60
2022-08-02T11:26:35.619Z,4.80
2022-08-02T11:29:05.524Z,3.00
2022-08-02T11:31:43.957Z,3.05
2022-08-02T11:34:11.668Z,3.28
2022-08-02T11:36:59.162Z,3.40
2022-08-02T11:39:29.154Z,3.45
2022-08-02T11:41:59.118Z,6.43
2022-08-02T11:44:28.768Z,2.75
2022-08-02T11:47:03.201Z,3.47
2022-08-02T11:49:31.183Z,4.05
2022-08-02T11:52:01.183Z,2.80
2022-08-02T11:54:31.929Z,2.78
2022-08-02T11:57:22.055Z,2.72
2022-08-02T11:59:54.600Z,2.42
2022-08-02T12:02:27.195Z,2.92
2022-08-02T12:05:02.138Z,4.10
2022-08-02T12:07:36.592Z,2.28
2022-08-02T12:10:03.765Z,2.88
2022-08-02T12:12:31.152Z,4.00
2022-08-02T12:14:59.592Z,4.82
2022-08-02T12:17:47.717Z,3.58
2022-08-02T12:20:15.370Z,5.43
2022-08-02T12:22:42.598Z,2.50
2022-08-02T12:25:34.450Z,6.20
2022-08-02T12:28:26.915Z,4.85
2022-08-02T12:31:00.033Z,2.30
2022-08-02T12:33:29.846Z,3.42
2022-08-02T12:35:58.953Z,4.07
2022-08-02T12:38:26.147Z,4.28
2022-08-02T12:40:54.350Z,2.95
2022-08-02T12:43:25.077Z,2.67
2022-08-02T12:45:55.173Z,2.50
2022-08-02T12:48:48.144Z,4.40
2022-08-02T12:51:50.817Z,4.70
2022-08-02T12:54:20.730Z,3.15
2022-08-02T12:56:57.822Z,5.53
2022-08-02T12:59:38.918Z,5.53
2022-08-02T13:02:09.166Z,6.07
2022-08-02T13:04:36.853Z,4.88
2022-08-02T13:07:05.271Z,3.58
2022-08-02T13:09:45.668Z,8.05
2022-08-02T13:12:13.221Z,5.45
2022-08-02T13:14:42.231Z,2.50
2022-08-02T13:17:13.029Z,3.45
2022-08-02T13:19:41.695Z,2.90
2022-08-02T13:22:10.745Z,3.13
2022-08-02T13:24:55.208Z,3.80
2022-08-02T13:27:24.710Z,2.53
2022-08-02T13:29:53.913Z,5.35
2022-08-02T13:32:21.859Z,4.82
2022-08-02T13:34:49.157Z,5.45
2022-08-02T13:37:16.695Z,4.22
2022-08-02T13:39:55.605Z,4.05
2022-08-02T13:42:31.402Z,3.60
2022-08-02T13:44:58.558Z,7.18
2022-08-02T13:47:35.994Z,8.43
2022-08-02T13:50:04.637Z,3.67
2022-08-02T13:52:36.385Z,2.65
2022-08-02T13:55:03.972Z,8.27
2022-08-02T13:57:39.675Z,2.50
2022-08-02T14:00:09.472Z,2.17
2022-08-02T14:02:40.491Z,4.72
2022-08-02T14:05:08.297Z,2.30
2022-08-02T14:07:35.424Z,2.10
2022-08-02T14:10:02.542Z,4.20
2022-08-02T14:12:30.741Z,3.28
2022-08-02T14:14:57.911Z,4.40
2022-08-02T14:17:25.093Z,2.45
2022-08-02T14:19:52.405Z,5.25
2022-08-02T14:22:19.654Z,3.72
2022-08-02T14:24:46.833Z,6.88
2022-08-02T14:27:16.062Z,3.58
2022-08-02T14:29:43.407Z,4.70
2022-08-02T14:32:10.985Z,3.00
2022-08-02T14:34:38.486Z,2.80
2022-08-02T14:37:05.676Z,3.63
2022-08-02T14:39:42.502Z,3.95
2022-08-02T14:42:20.568Z,2.72
2022-08-02T14:44:47.894Z,3.30
2022-08-02T14:47:15.111Z,5.72
2022-08-02T14:49:45.975Z,5.72
2022-08-02T14:52:15.994Z,4.18
2022-08-02T14:54:43.382Z,3.83
2022-08-02T14:57:13.990Z,5.90
2022-08-02T14:59:42.369Z,3.00
2022-08-02T15:02:13.053Z,3.17
2022-08-02T15:04:43.359Z,7.38
2022-08-02T15:07:11.592Z,4.28
2022-08-02T15:09:39.803Z,5.07
2022-08-02T15:12:08.835Z,5.30
2022-08-02T15:14:36.040Z,10.77
2022-08-02T15:17:03.580Z,7.65
2022-08-02T15:19:56.359Z,3.03
2022-08-02T15:22:19.871Z,5.00
2022-08-02T15:24:48.275Z,7.05
2022-08-02T15:27:16.186Z,10.98
2022-08-02T15:29:45.661Z,6.78
2022-08-02T15:32:13.831Z,4.25
2022-08-02T15:34:41.288Z,6.80
2022-08-02T15:37:09.151Z,5.15
2022-08-02T15:39:36.748Z,6.05
2022-08-02T15:42:04.151Z,3.47
2022-08-02T15:44:31.510Z,4.25
2022-08-02T15:46:58.760Z,3.10
2022-08-02T15:49:26.419Z,4.38
2022-08-02T15:51:54.348Z,2.60
2022-08-02T15:54:21.658Z,5.93
2022-08-02T15:56:49.206Z,2.75
2022-08-02T15:59:16.387Z,4.32
2022-08-02T16:01:47.618Z,5.85
2022-08-02T16:04:16.274Z,4.28
2022-08-02T16:06:44.068Z,4.85
2022-08-02T16:09:11.634Z,5.30
2022-08-02T16:11:39.061Z,15.07
2022-08-02T16:14:06.713Z,14.95
2022-08-02T16:16:35.728Z,21.52
2022-08-02T16:19:46.546Z,21.80
2022-08-02T16:21:53.904Z,11.77
2022-08-02T16:24:21.578Z,12.65
2022-08-02T16:26:51.448Z,10.02
2022-08-02T16:29:19.934Z,14.50
2022-08-02T16:31:50.856Z,14.57
2022-08-02T16:34:18.248Z,9.77
2022-08-02T16:36:46.025Z,3.95
2022-08-02T16:39:13.669Z,8.38
2022-08-02T16:41:51.851Z,3.45
2022-08-02T16:44:27.590Z,14.35
2022-08-02T16:47:12.184Z,13.85
2022-08-02T16:50:04.087Z,18.08
2022-08-02T16:52:28.179Z,4.18
2022-08-02T16:54:55.737Z,7.82
2022-08-02T16:57:42.571Z,5.13
2022-08-02T17:00:11.765Z,5.45
2022-08-02T17:02:41.788Z,4.22
2022-08-02T17:05:14.566Z,4.00
2022-08-02T17:08:07.694Z,13.88
2022-08-02T17:10:37.607Z,9.30
2022-08-02T17:13:11.309Z,11.65
2022-08-02T17:16:08.065Z,9.38
2022-08-02T17:18:30.235Z,3.13
2022-08-02T17:20:59.222Z,6.57
2022-08-02T17:24:04.585Z,11.90
2022-08-02T17:26:17.265Z,8.23
2022-08-02T17:29:14.500Z,3.55
2022-08-02T17:31:43.031Z,5.60
2022-08-02T17:34:27.041Z,5.45
2022-08-02T17:37:02.111Z,5.82
2022-08-02T17:39:44.091Z,5.57
2022-08-02T17:42:24.935Z,9.02
2022-08-02T17:45:00.837Z,5.95
2022-08-02T17:47:42.408Z,6.73
2022-08-02T17:50:12.639Z,5.82
2022-08-02T17:52:52.356Z,4.30
2022-08-02T17:55:20.774Z,8.57
2022-08-02T17:57:57.639Z,11.02
2022-08-02T18:00:46.801Z,6.63
2022-08-02T18:03:15.426Z,6.05
2022-08-02T18:05:55.242Z,9.13
2022-08-02T18:08:26.030Z,4.85
2022-08-02T18:13:24.843Z,3.20
2022-08-02T18:15:59.375Z,6.55
2022-08-02T18:18:29.634Z,3.72
2022-08-02T18:20:58.561Z,9.40
2022-08-02T18:23:44.114Z,4.93
2022-08-02T18:28:48.145Z,4.22
2022-08-02T18:31:22.422Z,2.92
2022-08-02T18:33:55.815Z,4.50
2022-08-02T18:36:29.301Z,4.20
2022-08-02T18:38:57.592Z,5.20
2022-08-02T18:41:24.857Z,3.22
2022-08-02T18:43:52.096Z,3.97
2022-08-02T18:46:20.036Z,3.75
2022-08-02T18:51:36.771Z,5.95
2022-08-02T18:54:04.560Z,10.13
2022-08-02T18:56:32.656Z,5.90
2022-08-02T18:59:03.176Z,6.38
2022-08-02T19:01:46.615Z,7.22
2022-08-02T19:04:26.959Z,8.45
2022-08-02T19:06:56.681Z,4.75
2022-08-02T19:09:31.111Z,4.63
2022-08-02T19:11:58.392Z,5.03
2022-08-02T19:14:27.562Z,6.45
2022-08-02T19:16:57.172Z,6.80
2022-08-02T19:19:28.964Z,4.50
2022-08-02T19:22:16.781Z,5.82
2022-08-02T19:24:50.486Z,7.03
2022-08-02T19:27:25.723Z,5.32
2022-08-02T19:29:59.256Z,2.83
2022-08-02T19:32:40.639Z,3.05
2022-08-02T19:35:29.892Z,2.92
2022-08-02T19:38:10.145Z,4.82
2022-08-02T19:40:45.521Z,4.22
2022-08-02T19:43:13.357Z,7.97
2022-08-02T19:46:00.518Z,18.67
2022-08-02T19:48:28.385Z,6.68
2022-08-02T19:51:00.854Z,8.60
2022-08-02T19:53:46.969Z,6.72
2022-08-02T19:56:25.037Z,15.75
2022-08-02T19:58:54.495Z,18.27
2022-08-02T20:01:37.402Z,11.32
2022-08-02T20:04:13.177Z,12.15
2022-08-02T20:06:47.443Z,21.85
2022-08-02T20:12:05.241Z,10.77
2022-08-02T20:14:32.439Z,22.15
2022-08-02T20:17:07.598Z,24.80
2022-08-02T20:19:40.268Z,15.38
2022-08-02T20:22:07.778Z,11.98
2022-08-02T20:24:35.149Z,12.32
2022-08-02T20:27:02.810Z,13.40
2022-08-02T20:29:43.099Z,8.38
2022-08-02T20:32:12.697Z,6.53
2022-08-02T20:34:40.150Z,6.13
2022-08-02T20:38:00.847Z,9.18
2022-08-02T20:39:57.328Z,9.80
2022-08-02T20:42:24.856Z,19.92
2022-08-02T20:44:55.987Z,12.02
2022-08-02T20:47:38.891Z,9.57
2022-08-02T20:50:30.398Z,8.77
2022-08-02T20:53:04.068Z,7.47
2022-08-02T20:55:32.316Z,11.68
2022-08-02T21:00:48.747Z,6.22
2022-08-02T21:03:16.730Z,10.02
2022-08-02T21:05:54.568Z,6.22
2022-08-02T21:08:24.198Z,8.13
2022-08-02T21:10:53.379Z,6.55
2022-08-02T21:13:26.154Z,11.40
2022-08-02T21:15:56.162Z,8.50
2022-08-02T21:18:30.539Z,9.88
2022-08-02T21:21:06.542Z,9.18
2022-08-02T21:23:48.399Z,9.70
2022-08-02T21:26:19.872Z,9.65
2022-08-02T21:28:55.538Z,7.70
2022-08-02T21:31:29.805Z,6.13
2022-08-02T21:34:00.371Z,9.63
2022-08-02T21:36:30.997Z,9.43
2022-08-02T21:39:05.622Z,7.53
2022-08-02T21:41:39.550Z,8.38
2022-08-02T21:44:17.598Z,9.02
2022-08-02T21:46:49.926Z,14.43
2022-08-02T21:49:40.860Z,8.55
2022-08-02T21:52:11.197Z,8.95
2022-08-02T21:54:39.842Z,9.88
2022-08-02T21:57:15.213Z,9.30
2022-08-02T21:59:46.117Z,6.63
2022-08-02T22:02:15.020Z,9.10
2022-08-02T22:04:47.390Z,12.40
2022-08-02T22:07:38.171Z,9.18
2022-08-02T22:10:06.498Z,11.63
2022-08-02T22:12:37.656Z,12.02
2022-08-02T22:15:10.271Z,13.80
2022-08-02T22:17:51.750Z,10.40
2022-08-02T22:20:21.538Z,11.05
2022-08-02T22:22:52.101Z,13.45
2022-08-02T22:25:36.280Z,9.02
2022-08-02T22:28:37.715Z,10.05
2022-08-02T22:31:04.625Z,13.38
2022-08-02T22:34:00.862Z,11.10
2022-08-02T22:36:30.795Z,9.82
2022-08-02T22:38:58.618Z,11.65
2022-08-02T22:41:26.182Z,10.30
2022-08-02T22:44:13.440Z,14.05
2022-08-02T22:46:42.247Z,14.52
2022-08-02T22:49:09.571Z,10.05
2022-08-02T22:51:56.664Z,9.70
2022-08-02T22:54:24.019Z,10.05
2022-08-02T22:56:51.191Z,11.75
2022-08-02T22:58:54.654Z,14.52
2022-08-02T22:58:56.731Z,6.05
2022-08-02T22:58:58.055Z,5.75
2022-08-02T22:59:20.284Z,10.82
2022-08-02T23:02:06.071Z,11.07
2022-08-02T23:04:33.381Z,12.40
2022-08-02T23:07:00.711Z,10.73
2022-08-02T23:09:28.001Z,9.98
2022-08-02T23:11:55.133Z,11.02
2022-08-02T23:14:22.351Z,10.27
2022-08-02T23:17:13.848Z,9.32
2022-08-02T23:19:53.335Z,12.07
2022-08-02T23:22:29.355Z,10.77
2022-08-02T23:25:00.553Z,11.43
2022-08-02T23:27:28.627Z,12.43
2022-08-02T23:29:55.792Z,13.88
2022-08-02T23:32:25.623Z,12.45
2022-08-02T23:34:54.397Z,10.73
2022-08-02T23:37:22.708Z,12.73
2022-08-02T23:39:50.299Z,11.30
2022-08-02T23:42:17.685Z,13.00
2022-08-02T23:44:44.980Z,11.30
2022-08-02T23:47:12.205Z,11.80
2022-08-02T23:49:39.428Z,13.50
2022-08-02T23:52:06.586Z,13.40
2022-08-02T23:54:33.723Z,12.45
2022-08-02T23:57:00.931Z,13.88
2022-08-02T23:59:48.294Z,8.65
